Time;durP1;ratioP1;P1;durP2;ratioP2;P2;SDS_P1;SDS_P2;PMS_P1;PMS_P2;Temp;Humidity;BMP_temperature;BMP_pressure;BME280_temperature;BME280_humidity;BME280_pressure;Samples;Min_cycle;Max_cycle;Signal;HPM_P1;HPM_P2
2022/01/12 00:02:04;;;;;;;13.40;7.33;;;;;;;-7.68;67.36;101311.23;1740936;81;21830;-76
2022/01/12 00:04:31;;;;;;;45.88;17.02;;;;;;;-7.71;67.36;101313.35;1740420;82;20956;-74
2022/01/12 00:06:59;;;;;;;153.87;54.30;;;;;;;-7.74;67.34;101312.02;1753358;81;21036;-74
2022/01/12 00:09:26;;;;;;;87.65;33.02;;;;;;;-7.73;67.45;101315.44;1753176;81;20965;-73
2022/01/12 00:11:52;;;;;;;52.13;20.85;;;;;;;-7.72;67.52;101326.13;1749274;81;21015;-74
2022/01/12 00:14:19;;;;;;;43.73;17.90;;;;;;;-7.77;67.03;101318.41;1728944;83;21809;-76
2022/01/12 00:16:48;;;;;;;10.43;5.70;;;;;;;-7.77;67.39;101318.41;1755038;81;20916;-73
2022/01/12 00:19:14;;;;;;;56.28;24.77;;;;;;;-7.83;67.50;101316.62;1742588;82;20953;-73
2022/01/12 00:21:40;;;;;;;13.95;6.85;;;;;;;-7.85;67.26;101318.31;1742878;82;21476;-73
2022/01/12 00:24:08;;;;;;;8.40;5.20;;;;;;;-7.82;67.35;101313.64;1742565;82;21032;-74
2022/01/12 00:26:42;;;;;;;9.03;5.15;;;;;;;-7.83;67.38;101316.62;1742637;82;23915;-77
2022/01/12 00:34:38;;;;;;;8.53;4.60;;;;;;;-7.95;67.22;101315.64;1743563;82;21024;-73
2022/01/12 00:37:05;;;;;;;8.48;4.40;;;;;;;-8.00;67.40;101323.72;1748689;82;21393;-74
2022/01/12 00:39:32;;;;;;;11.65;5.20;;;;;;;-8.00;67.50;101319.88;1748372;82;21709;-73
2022/01/12 00:41:58;;;;;;;52.40;21.27;;;;;;;-7.96;67.45;101332.73;1763168;81;21403;-74
2022/01/12 00:44:33;;;;;;;188.35;67.45;;;;;;;-8.01;67.31;101329.66;1762870;80;21420;-73
2022/01/12 00:46:53;;;;;;;43.33;18.32;;;;;;;-8.03;67.43;101327.09;1749400;80;20947;-73
2022/01/12 00:49:20;;;;;;;93.05;37.67;;;;;;;-8.07;67.32;101322.78;1737358;82;21010;-77
2022/01/12 00:51:50;;;;;;;42.43;18.42;;;;;;;-8.12;67.36;101326.98;1743104;79;22018;-73
2022/01/12 00:54:15;;;;;;;44.35;18.60;;;;;;;-8.13;67.36;101326.12;1781796;79;20944;-72
2022/01/12 00:56:42;;;;;;;10.43;5.75;;;;;;;-8.12;67.46;101330.40;1756300;81;20976;-73
2022/01/12 00:59:08;;;;;;;24.70;11.57;;;;;;;-8.16;67.23;101332.50;1781915;79;21010;-71
2022/01/12 01:01:35;;;;;;;42.13;20.15;;;;;;;-8.19;67.35;101335.45;1773932;79;20929;-74
2022/01/12 01:04:02;;;;;;;28.55;14.07;;;;;;;-8.19;67.40;101335.45;1765303;79;22487;-73
2022/01/12 01:06:31;;;;;;;18.85;10.10;;;;;;;-8.15;67.51;101332.08;1761737;81;21462;-73
2022/01/12 01:08:59;;;;;;;22.82;10.85;;;;;;;-8.14;67.45;101336.36;1739230;81;21003;-73
2022/01/12 01:11:27;;;;;;;12.35;6.42;;;;;;;-8.17;67.39;101338.89;1725205;81;21039;-72
2022/01/12 01:13:58;;;;;;;11.28;5.87;;;;;;;-8.18;67.39;101344.44;1737472;82;20999;-73
2022/01/12 01:27:25;;;;;;;15.65;7.30;;;;;;;-8.39;67.20;101339.09;1735978;81;21458;-71
2022/01/12 01:29:55;;;;;;;8.80;5.40;;;;;;;-8.37;67.17;101339.95;1764373;80;20980;-74
2022/01/12 01:32:22;;;;;;;10.18;4.97;;;;;;;-8.41;67.01;101339.45;1796865;79;21030;-73
2022/01/12 01:34:50;;;;;;;8.08;4.72;;;;;;;-8.50;67.03;101345.31;1796904;79;20964;-73
2022/01/12 01:37:19;;;;;;;8.55;4.95;;;;;;;-8.56;67.05;101350.38;1784804;79;21038;-73
2022/01/12 01:39:46;;;;;;;12.65;6.45;;;;;;;-8.63;67.03;101346.42;1786799;79;20943;-73
2022/01/12 01:42:21;;;;;;;16.97;8.55;;;;;;;-8.70;67.22;101351.44;1794611;79;22220;-72
2022/01/12 01:55:32;;;;;;;19.85;9.65;;;;;;;-8.79;67.51;101371.78;1719152;81;21427;-72
2022/01/12 01:57:59;;;;;;;14.23;7.78;;;;;;;-8.78;67.49;101373.92;1782439;79;20996;-72
2022/01/12 02:00:28;;;;;;;29.98;11.70;;;;;;;-8.81;67.32;101370.91;1773879;79;21065;-70
2022/01/12 02:02:57;;;;;;;30.95;13.32;;;;;;;-8.84;67.27;101363.61;1764623;80;21058;-72
2022/01/12 02:05:28;;;;;;;24.90;10.23;;;;;;;-8.90;67.17;101365.64;1771914;79;21479;-73
2022/01/12 02:07:55;;;;;;;13.65;7.80;;;;;;;-8.92;67.22;101368.60;1738015;80;21825;-72
2022/01/12 02:10:23;;;;;;;10.77;6.50;;;;;;;-8.98;67.21;101376.17;1781198;79;21409;-73
2022/01/12 02:12:50;;;;;;;15.23;8.00;;;;;;;-9.03;67.39;101381.66;1767493;79;21444;-73
2022/01/12 02:15:22;;;;;;;16.17;8.33;;;;;;;-9.04;67.54;101379.94;1787892;79;21002;-72
2022/01/12 02:18:16;;;;;;;31.12;14.73;;;;;;;-9.05;67.49;101378.22;1797230;79;21461;-73
2022/01/12 02:35:20;;;;;;;7.97;4.47;;;;;;;-9.36;66.68;101380.26;1762506;79;21876;-72
2022/01/12 02:40:34;;;;;;;11.68;6.00;;;;;;;-9.51;66.50;101372.30;1742720;81;21406;-72
2022/01/12 02:53:45;;;;;;;27.90;12.85;;;;;;;-9.71;65.99;101381.30;1757472;80;20963;-73
2022/01/12 02:56:22;;;;;;;23.45;11.40;;;;;;;-9.77;65.75;101380.75;1748682;81;21019;-73
2022/01/12 02:58:51;;;;;;;15.80;8.55;;;;;;;-9.82;65.72;101392.18;1732546;81;21015;-73
2022/01/12 03:01:43;;;;;;;8.65;5.55;;;;;;;-9.83;65.83;101390.88;1769292;80;21688;-73
2022/01/12 03:03:50;;;;;;;7.12;4.30;;;;;;;-9.84;65.61;101389.16;1727172;83;21042;-73
2022/01/12 03:06:20;;;;;;;8.98;5.20;;;;;;;-9.87;65.70;101393.77;1750193;81;21003;-73
2022/01/12 03:08:46;;;;;;;13.40;6.37;;;;;;;-9.88;65.66;101393.74;1779917;80;20956;-73
2022/01/12 03:11:16;;;;;;;11.33;6.05;;;;;;;-9.92;65.61;101390.70;1763334;81;20944;-74
2022/01/12 03:13:43;;;;;;;9.95;5.70;;;;;;;-9.92;65.55;101392.83;1781727;80;21781;-73
2022/01/12 03:16:15;;;;;;;8.45;4.70;;;;;;;-9.89;65.65;101400.97;1740493;81;21474;-74
2022/01/12 03:18:44;;;;;;;7.90;4.60;;;;;;;-9.91;65.45;101400.94;1742499;81;20953;-72
2022/01/12 03:21:11;;;;;;;6.67;4.50;;;;;;;-9.93;65.50;101394.08;1725196;81;21055;-74
2022/01/12 03:23:38;;;;;;;6.97;4.33;;;;;;;-9.96;65.43;101393.58;1764453;81;21550;-73
2022/01/12 03:26:06;;;;;;;7.87;4.53;;;;;;;-9.98;65.45;101385.03;1788877;80;21824;-72
2022/01/12 03:28:33;;;;;;;6.28;3.80;;;;;;;-9.97;65.61;101395.70;1774360;80;21118;-73
2022/01/12 03:31:10;;;;;;;7.58;3.70;;;;;;;-9.99;65.51;101396.09;1754299;81;20984;-73
2022/01/12 03:38:30;;;;;;;6.05;3.72;;;;;;;-9.91;65.86;101387.30;1658736;84;21867;-73
2022/01/12 03:40:58;;;;;;;7.08;3.65;;;;;;;-9.90;65.91;101389.89;1754353;80;21455;-73
2022/01/12 03:43:25;;;;;;;6.78;3.95;;;;;;;-9.90;65.98;101388.61;1784096;80;20963;-73
2022/01/12 03:45:52;;;;;;;7.08;3.80;;;;;;;-9.94;65.92;101388.11;1765639;80;20981;-73
2022/01/12 03:48:18;;;;;;;7.75;4.10;;;;;;;-9.96;66.13;101380.80;1757572;80;21046;-73
2022/01/12 03:50:45;;;;;;;6.87;3.67;;;;;;;-9.95;66.13;101378.70;1752188;81;21385;-73
2022/01/12 03:53:12;;;;;;;6.78;3.55;;;;;;;-9.92;66.15;101381.75;1763141;80;20913;-73
2022/01/12 03:55:38;;;;;;;6.15;3.58;;;;;;;-9.93;66.23;101378.33;1727766;81;21524;-72
2022/01/12 03:58:06;;;;;;;7.22;3.50;;;;;;;-9.93;66.14;101375.78;1756018;81;20997;-73
2022/01/12 04:00:33;;;;;;;6.60;3.22;;;;;;;-9.99;65.74;101375.64;1759417;80;20984;-73
2022/01/12 04:03:03;;;;;;;7.97;4.25;;;;;;;-10.06;65.61;101376.76;1788553;80;21782;-74
2022/01/12 04:08:20;;;;;;;7.42;4.35;;;;;;;-10.12;65.66;101382.63;1793055;80;21063;-73
2022/01/12 04:10:56;;;;;;;7.50;3.90;;;;;;;-10.13;65.69;101377.08;1767960;80;20943;-73
2022/01/12 04:13:24;;;;;;;8.53;4.03;;;;;;;-10.17;65.67;101379.09;1746641;82;20945;-73
2022/01/12 04:15:54;;;;;;;8.98;5.30;;;;;;;-10.16;65.84;101379.54;1748400;82;21852;-73
2022/01/12 04:18:21;;;;;;;11.45;5.55;;;;;;;-10.17;65.54;101379.95;1739068;81;21007;-74
2022/01/12 04:20:49;;;;;;;12.82;6.30;;;;;;;-10.20;65.52;101377.35;1768827;80;21083;-72
2022/01/12 04:23:21;;;;;;;17.00;7.37;;;;;;;-10.23;65.45;101377.72;1755045;80;21003;-74
2022/01/12 04:25:58;;;;;;;8.73;4.47;;;;;;;-10.25;65.44;101387.05;1726626;83;21533;-74
2022/01/12 04:28:27;;;;;;;32.28;13.48;;;;;;;-10.35;65.16;101384.70;1731669;82;21913;-73
2022/01/12 04:30:55;;;;;;;15.08;7.00;;;;;;;-10.48;65.24;101383.59;1774716;80;20931;-72
2022/01/12 04:33:22;;;;;;;10.30;4.53;;;;;;;-10.52;65.30;101393.68;1758782;81;20948;-72
2022/01/12 04:35:54;;;;;;;9.05;4.83;;;;;;;-10.58;65.32;101389.73;1774687;80;21014;-72
2022/01/12 04:38:22;;;;;;;71.60;22.67;;;;;;;-10.62;65.36;101393.89;1758683;81;21048;-73
2022/01/12 04:40:49;;;;;;;21.37;9.75;;;;;;;-10.62;65.33;101385.37;1768802;80;21810;-73
2022/01/12 04:43:17;;;;;;;35.43;11.95;;;;;;;-10.67;65.30;101392.94;1739644;81;20953;-74
2022/01/12 04:50:49;;;;;;;106.50;32.83;;;;;;;-10.74;64.80;101405.96;1730593;80;21018;-72
2022/01/12 04:53:18;;;;;;;53.23;17.50;;;;;;;-10.85;64.64;101401.44;1759930;80;21751;-74
2022/01/12 04:55:44;;;;;;;18.02;7.55;;;;;;;-10.92;64.62;101405.94;1736048;81;21119;-73
2022/01/12 04:58:11;;;;;;;18.77;9.05;;;;;;;-11.01;64.61;101408.70;1741440;80;21047;-73
2022/01/12 05:00:38;;;;;;;10.03;4.97;;;;;;;-11.08;64.43;101411.95;1741844;81;21020;-72
2022/01/12 05:08:51;;;;;;;28.45;11.20;;;;;;;-11.32;64.22;101404.53;1728878;83;21031;-72
2022/01/12 05:13:54;;;;;;;10.43;4.90;;;;;;;-11.46;63.93;101406.28;1792495;80;20966;-72
2022/01/12 05:16:21;;;;;;;11.85;6.20;;;;;;;-11.54;63.94;101400.98;1771434;80;21051;-71
2022/01/12 05:18:49;;;;;;;63.55;27.20;;;;;;;-11.58;63.90;101410.24;1753606;81;21716;-74
2022/01/12 05:21:17;;;;;;;14.53;6.92;;;;;;;-11.57;63.97;101408.55;1749336;80;21450;-74
2022/01/12 05:23:44;;;;;;;8.60;4.70;;;;;;;-11.52;64.12;101411.21;1708532;82;20995;-74
2022/01/12 05:26:10;;;;;;;7.45;4.10;;;;;;;-11.51;64.16;101410.39;1740086;81;21021;-73
2022/01/12 05:28:39;;;;;;;8.13;4.50;;;;;;;-11.50;64.00;101400.22;1745543;80;21000;-72
2022/01/12 05:31:07;;;;;;;6.83;3.83;;;;;;;-11.53;64.07;101402.70;1756619;80;21829;-70
2022/01/12 05:33:34;;;;;;;10.65;5.28;;;;;;;-11.53;63.99;101407.80;1790660;80;21363;-70
2022/01/12 05:36:04;;;;;;;15.08;7.92;;;;;;;-11.53;64.00;101405.66;1756546;80;20989;-70
2022/01/12 05:38:33;;;;;;;91.57;36.53;;;;;;;-11.53;64.02;101405.25;1780636;79;20961;-71
2022/01/12 05:41:04;;;;;;;95.35;39.75;;;;;;;-11.53;64.01;101403.12;1784012;79;21034;-71
2022/01/12 05:43:32;;;;;;;96.45;41.08;;;;;;;-11.51;64.05;101396.36;1795897;79;21801;-71
2022/01/12 05:46:12;;;;;;;19.52;9.00;;;;;;;-11.47;64.13;101399.47;1781626;80;21107;-72
2022/01/12 05:51:24;;;;;;;54.18;24.40;;;;;;;-11.41;64.31;101402.16;1767348;80;20957;-73
2022/01/12 05:53:51;;;;;;;34.88;14.83;;;;;;;-11.39;64.28;101401.77;1726746;80;21021;-73
2022/01/12 05:56:18;;;;;;;27.20;12.00;;;;;;;-11.39;64.24;101404.33;1785710;78;21745;-72
2022/01/12 05:58:45;;;;;;;43.90;18.50;;;;;;;-11.46;64.19;101399.91;1755266;80;20870;-74
2022/01/12 06:01:12;;;;;;;36.68;16.35;;;;;;;-11.45;64.41;101404.19;1769436;80;21011;-72
2022/01/12 06:03:38;;;;;;;31.60;15.25;;;;;;;-11.41;64.51;101399.19;1772398;80;21038;-72
2022/01/12 06:06:05;;;;;;;40.08;17.67;;;;;;;-11.37;64.55;101404.84;1764400;81;21430;-72
2022/01/12 06:08:32;;;;;;;56.98;23.22;;;;;;;-11.32;64.70;101407.50;1762444;81;21831;-72
2022/01/12 06:10:59;;;;;;;51.02;20.80;;;;;;;-11.30;64.65;101402.02;1737675;82;21046;-73
2022/01/12 06:13:26;;;;;;;39.30;17.92;;;;;;;-11.29;64.68;101411.01;1752764;81;21467;-73
2022/01/12 06:15:55;;;;;;;34.67;14.60;;;;;;;-11.27;64.82;101409.35;1761766;81;21004;-72
2022/01/12 06:18:22;;;;;;;34.80;16.75;;;;;;;-11.26;64.80;101414.04;1762068;81;21328;-72
2022/01/12 06:20:48;;;;;;;22.75;12.30;;;;;;;-11.26;64.80;101416.17;1777751;80;21800;-73
2022/01/12 06:23:23;;;;;;;22.60;12.23;;;;;;;-11.25;64.85;101419.59;1753882;81;21016;-73
2022/01/12 06:25:54;;;;;;;19.98;12.10;;;;;;;-11.20;64.91;101426.06;1758114;81;21011;-71
2022/01/12 06:31:17;;;;;;;9.75;6.20;;;;;;;-11.24;64.86;101418.76;1764176;81;21015;-72
2022/01/12 06:33:47;;;;;;;9.25;5.17;;;;;;;-11.30;64.77;101426.23;1763663;80;23650;-71
2022/01/12 06:36:18;;;;;;;9.60;4.72;;;;;;;-11.29;65.04;101416.11;1761780;81;21108;-72
2022/01/12 06:38:45;;;;;;;10.55;4.35;;;;;;;-11.26;64.92;101417.86;1768270;80;20956;-72
2022/01/12 06:41:12;;;;;;;7.58;4.50;;;;;;;-11.26;64.96;101415.31;1757066;80;21070;-71
2022/01/12 06:43:39;;;;;;;9.58;4.47;;;;;;;-11.29;64.92;101421.59;1747204;81;21000;-72
2022/01/12 06:46:06;;;;;;;9.08;4.80;;;;;;;-11.31;65.03;101411.77;1774896;80;21887;-72
2022/01/12 06:48:34;;;;;;;12.93;4.97;;;;;;;-11.31;65.06;101420.69;1753053;81;21008;-72
2022/01/12 06:51:01;;;;;;;10.63;4.37;;;;;;;-11.31;65.12;101413.91;1753272;81;21009;-71
2022/01/12 06:53:29;;;;;;;8.28;4.22;;;;;;;-11.30;65.16;101415.63;1760280;80;21004;-72
2022/01/12 06:55:55;;;;;;;10.18;4.35;;;;;;;-11.30;65.34;101415.63;1761780;80;20948;-72
2022/01/12 06:58:22;;;;;;;10.03;3.87;;;;;;;-11.25;65.42;101413.21;1781928;80;21849;-73
2022/01/12 07:00:49;;;;;;;9.10;3.80;;;;;;;-11.22;65.36;101411.14;1738976;81;21047;-73
2022/01/12 07:03:15;;;;;;;9.60;4.92;;;;;;;-11.21;65.33;101412.86;1723298;83;21059;-71
2022/01/12 07:05:50;;;;;;;18.95;7.67;;;;;;;-11.23;65.25;101413.24;1717569;83;21035;-71
2022/01/12 07:08:18;;;;;;;11.28;5.75;;;;;;;-11.28;65.25;101415.69;1717988;83;21115;-72
2022/01/12 07:10:45;;;;;;;10.10;4.40;;;;;;;-11.30;65.31;101413.08;1743132;81;21830;-73
2022/01/12 07:13:16;;;;;;;14.33;7.62;;;;;;;-11.26;65.36;101414.04;1746938;81;21843;-73
2022/01/12 07:15:44;;;;;;;14.05;6.97;;;;;;;-11.27;65.16;101407.22;1752202;81;21044;-73
2022/01/12 07:18:11;;;;;;;21.70;12.20;;;;;;;-11.23;65.28;101410.28;1751379;80;21011;-72
2022/01/12 07:20:39;;;;;;;32.70;18.10;;;;;;;-11.14;65.42;101409.66;1773648;80;20999;-73
2022/01/12 07:23:05;;;;;;;11.03;6.22;;;;;;;-11.07;65.39;101407.30;1753773;81;21807;-73
2022/01/12 07:25:33;;;;;;;10.53;4.70;;;;;;;-11.05;65.37;101404.37;1751844;81;20971;-72
2022/01/12 07:27:59;;;;;;;9.90;4.37;;;;;;;-10.98;65.34;101406.67;1745717;82;21044;-70
2022/01/12 07:30:26;;;;;;;7.70;4.22;;;;;;;-10.91;65.40;101412.77;1742560;81;20995;-71
2022/01/12 07:32:52;;;;;;;7.15;3.70;;;;;;;-10.88;65.34;101412.86;1750906;82;20949;-68
2022/01/12 07:35:19;;;;;;;7.05;3.87;;;;;;;-10.82;65.24;101412.98;1739864;80;21803;-68
2022/01/12 07:37:46;;;;;;;7.35;3.60;;;;;;;-10.82;65.06;101411.30;1730225;81;20927;-67
2022/01/12 07:40:12;;;;;;;7.80;3.95;;;;;;;-10.92;64.51;101399.14;1756338;81;21045;-70
2022/01/12 07:42:40;;;;;;;8.75;3.72;;;;;;;-11.01;64.59;101405.30;1738487;81;21019;-72
2022/01/12 07:45:11;;;;;;;7.95;4.22;;;;;;;-11.03;64.82;101408.23;1779425;80;21050;-72
2022/01/12 07:47:38;;;;;;;9.40;3.83;;;;;;;-10.95;65.03;101415.66;1775313;80;21785;-72
2022/01/12 07:50:06;;;;;;;6.75;3.40;;;;;;;-10.88;64.84;101416.27;1758136;80;21393;-73
2022/01/12 07:52:34;;;;;;;7.72;4.10;;;;;;;-10.93;64.63;101411.87;1732766;81;20963;-73
2022/01/12 07:55:01;;;;;;;9.88;4.28;;;;;;;-10.99;64.61;101418.56;1744663;81;21622;-72
2022/01/12 07:57:27;;;;;;;6.40;3.77;;;;;;;-10.99;64.59;101418.56;1732656;80;21371;-72
2022/01/12 07:59:55;;;;;;;8.80;4.08;;;;;;;-11.00;64.56;101415.56;1760022;80;22165;-72
2022/01/12 08:02:21;;;;;;;7.80;3.90;;;;;;;-11.01;64.66;101422.73;1761640;80;21012;-73
2022/01/12 08:04:48;;;;;;;5.97;3.20;;;;;;;-10.95;64.81;101421.18;1775307;80;21087;-73
2022/01/12 08:07:14;;;;;;;8.68;3.87;;;;;;;-10.94;64.45;101423.77;1771541;80;21043;-74
2022/01/12 08:09:42;;;;;;;6.72;3.50;;;;;;;-11.00;64.43;101424.88;1748652;80;20995;-71
2022/01/12 08:12:09;;;;;;;7.03;3.50;;;;;;;-10.97;64.56;101426.25;1790726;80;21810;-72
2022/01/12 08:14:37;;;;;;;8.78;4.40;;;;;;;-10.97;64.53;101430.94;1792467;80;20951;-72
2022/01/12 08:17:04;;;;;;;8.35;4.22;;;;;;;-10.92;64.58;101428.90;1787347;80;21518;-73
2022/01/12 08:19:34;;;;;;;8.35;4.20;;;;;;;-10.85;64.66;101429.51;1724552;80;21043;-73
2022/01/12 08:21:59;;;;;;;17.87;8.70;;;;;;;-10.78;64.55;101433.94;1768957;80;21011;-73
2022/01/12 08:24:25;;;;;;;25.75;11.63;;;;;;;-10.74;64.46;101434.03;1781323;80;21731;-72
2022/01/12 08:26:52;;;;;;;9.08;5.05;;;;;;;-10.78;64.21;101432.66;1776288;80;21007;-70
2022/01/12 08:29:18;;;;;;;8.68;4.40;;;;;;;-10.80;64.08;101430.50;1718931;83;21529;-71
2022/01/12 08:31:45;;;;;;;7.12;3.80;;;;;;;-10.82;64.16;101425.74;1739133;81;21438;-70
2022/01/12 08:34:11;;;;;;;10.38;4.10;;;;;;;-10.87;63.96;101424.38;1772745;80;21501;-71
2022/01/12 08:36:39;;;;;;;7.83;3.67;;;;;;;-10.92;63.80;101428.48;1752712;81;22555;-73
2022/01/12 08:39:10;;;;;;;9.55;4.30;;;;;;;-10.97;64.01;101433.91;1774791;80;21501;-73
2022/01/12 08:41:36;;;;;;;9.65;5.37;;;;;;;-10.94;64.14;101428.00;1743107;81;21015;-68
2022/01/12 08:44:05;;;;;;;12.10;5.70;;;;;;;-10.92;64.02;101422.11;1749894;81;21012;-73
2022/01/12 08:46:32;;;;;;;9.35;4.10;;;;;;;-10.88;64.18;101419.23;1741422;81;21038;-71
2022/01/12 08:48:59;;;;;;;7.20;4.03;;;;;;;-10.81;64.14;101423.64;1755878;80;22204;-70
2022/01/12 08:51:25;;;;;;;7.47;3.90;;;;;;;-10.73;64.07;101435.76;1755542;81;21074;-72
2022/01/12 08:53:52;;;;;;;8.25;4.78;;;;;;;-10.63;64.01;101424.08;1756777;80;21008;-70
2022/01/12 08:56:19;;;;;;;9.78;4.97;;;;;;;-10.60;63.78;101415.65;1748411;81;21047;-72
2022/01/12 08:58:48;;;;;;;14.28;7.85;;;;;;;-10.55;63.75;101425.53;1738097;80;21059;-70
2022/01/12 09:01:15;;;;;;;12.28;6.25;;;;;;;-10.50;63.78;101427.38;1696095;84;21793;-68
2022/01/12 09:03:42;;;;;;;10.20;5.40;;;;;;;-10.38;63.91;101425.92;1723521;83;21081;-68
2022/01/12 09:06:09;;;;;;;52.53;21.87;;;;;;;-10.29;63.83;101417.19;1697045;84;21082;-70
2022/01/12 09:08:38;;;;;;;15.93;7.15;;;;;;;-10.25;63.44;101433.88;1710101;84;21427;-69
2022/01/12 09:11:06;;;;;;;12.68;6.45;;;;;;;-10.31;62.89;101422.69;1706894;82;46053;-69
2022/01/12 09:13:33;;;;;;;13.60;5.65;;;;;;;-10.40;62.83;101424.20;1748615;81;21810;-69
2022/01/12 09:16:06;;;;;;;198.38;59.98;;;;;;;-10.38;62.54;101425.92;1730965;81;21020;-70
2022/01/12 09:18:28;;;;;;;221.18;70.83;;;;;;;-10.35;62.68;101429.81;1709190;82;21054;-71
2022/01/12 09:20:56;;;;;;;28.40;10.70;;;;;;;-10.30;62.67;101415.47;1728470;82;20999;-71
2022/01/12 09:23:22;;;;;;;10.20;4.55;;;;;;;-10.27;62.21;101425.33;1750952;81;20998;-71
2022/01/12 09:25:49;;;;;;;8.08;4.42;;;;;;;-10.38;61.81;101425.92;1726586;83;21734;-69
2022/01/12 09:28:17;;;;;;;18.02;7.30;;;;;;;-10.47;61.76;101432.55;1723118;82;20947;-68
2022/01/12 09:30:44;;;;;;;10.30;4.33;;;;;;;-10.50;61.93;101426.11;1749979;81;20955;-65
2022/01/12 09:33:10;;;;;;;16.80;6.53;;;;;;;-10.47;61.88;101425.30;1729539;81;21082;-65
2022/01/12 09:35:37;;;;;;;46.40;16.75;;;;;;;-10.46;62.03;101429.16;1739423;82;20959;-65
2022/01/12 09:38:04;;;;;;;27.37;9.30;;;;;;;-10.41;62.15;101419.93;1756860;79;21836;-66
2022/01/12 09:40:30;;;;;;;17.42;7.47;;;;;;;-10.35;62.00;101431.09;1748368;82;21031;-65
2022/01/12 09:43:01;;;;;;;39.48;14.10;;;;;;;-10.35;61.89;101426.84;1748627;82;20949;-66
2022/01/12 09:45:27;;;;;;;27.20;10.20;;;;;;;-10.31;62.13;101419.72;1720017;82;20948;-67
2022/01/12 09:47:54;;;;;;;32.28;13.85;;;;;;;-10.32;61.77;101428.62;1751917;81;21004;-70
2022/01/12 09:50:22;;;;;;;15.13;7.28;;;;;;;-10.29;62.21;101416.78;1748422;81;22247;-66
2022/01/12 09:52:49;;;;;;;23.05;11.00;;;;;;;-10.30;61.60;101430.80;1755029;81;21026;-68
2022/01/12 09:55:18;;;;;;;11.93;6.05;;;;;;;-10.42;61.69;101427.56;1748427;82;20962;-68
2022/01/12 09:57:45;;;;;;;10.30;5.03;;;;;;;-10.47;61.82;101436.38;1748273;82;21006;-67
2022/01/12 10:00:14;;;;;;;9.03;4.47;;;;;;;-10.45;61.90;101432.58;1748419;82;21030;-66
2022/01/12 10:02:42;;;;;;;15.23;6.67;;;;;;;-10.44;62.12;101430.05;1748421;82;21809;-67
2022/01/12 10:05:11;;;;;;;19.57;9.30;;;;;;;-10.37;62.35;101425.95;1746185;82;20996;-68
2022/01/12 10:07:37;;;;;;;18.60;9.33;;;;;;;-10.31;62.56;101417.58;1733978;82;20937;-67
2022/01/12 10:10:07;;;;;;;25.08;11.75;;;;;;;-10.22;62.73;101419.06;1690491;83;21078;-67
2022/01/12 10:12:35;;;;;;;14.43;7.20;;;;;;;-10.16;62.53;101417.86;1718745;83;21416;-68
2022/01/12 10:15:10;;;;;;;12.40;5.85;;;;;;;-10.15;62.27;101421.72;1720134;81;21832;-68
2022/01/12 10:17:43;;;;;;;21.20;10.03;;;;;;;-10.20;62.15;101409.70;1767915;81;21026;-68
2022/01/12 10:20:18;;;;;;;9.95;5.42;;;;;;;-10.20;62.44;101407.14;1768621;81;21015;-68
2022/01/12 10:22:59;;;;;;;8.35;4.03;;;;;;;-10.18;62.29;101405.06;1768565;81;21022;-69
2022/01/12 10:25:28;;;;;;;9.53;4.47;;;;;;;-10.24;62.12;101399.84;1767254;80;21004;-69
2022/01/12 10:27:55;;;;;;;5.47;3.20;;;;;;;-10.28;62.27;101401.89;1785599;80;21805;-70
2022/01/12 10:30:29;;;;;;;5.55;3.08;;;;;;;-10.30;62.16;101395.91;1747275;82;20988;-68
2022/01/12 10:33:06;;;;;;;7.22;3.80;;;;;;;-10.28;62.32;101398.06;1747554;81;21149;-69
2022/01/12 10:35:35;;;;;;;5.60;3.10;;;;;;;-10.26;62.24;101397.67;1746286;82;21099;-69
2022/01/12 10:38:14;;;;;;;5.83;2.98;;;;;;;-10.22;62.35;101396.07;1754525;81;20988;-69
2022/01/12 10:40:58;;;;;;;4.85;2.95;;;;;;;-10.21;62.01;101393.52;1764628;81;21846;-69
2022/01/12 10:43:39;;;;;;;6.67;3.15;;;;;;;-10.16;62.01;101395.73;1736212;82;21094;-70
2022/01/12 10:46:09;;;;;;;6.85;3.17;;;;;;;-10.22;61.63;101392.23;1762211;81;21085;-69
2022/01/12 10:48:54;;;;;;;5.33;2.80;;;;;;;-10.26;61.66;101384.05;1763118;80;21042;-68
2022/01/12 10:51:24;;;;;;;5.72;3.05;;;;;;;-10.24;61.74;101393.45;1765400;81;21489;-70
2022/01/12 10:53:53;;;;;;;5.50;3.58;;;;;;;-10.31;60.73;101392.05;1766183;81;22552;-69
2022/01/12 10:56:22;;;;;;;6.58;3.33;;;;;;;-10.37;60.83;101388.92;1763771;79;21047;-69
2022/01/12 10:58:50;;;;;;;5.45;3.10;;;;;;;-10.35;60.74;101390.23;1763463;81;21085;-68
2022/01/12 11:01:19;;;;;;;6.10;3.47;;;;;;;-10.34;60.70;101385.16;1747239;82;21015;-68
2022/01/12 11:03:47;;;;;;;5.40;2.95;;;;;;;-10.30;60.81;101395.04;1747357;82;21012;-69
2022/01/12 11:06:14;;;;;;;6.03;2.98;;;;;;;-10.34;59.93;101378.77;1747277;82;22219;-68
2022/01/12 11:08:41;;;;;;;6.50;2.80;;;;;;;-10.38;59.78;101383.79;1747246;82;21028;-69
2022/01/12 11:11:08;;;;;;;6.62;3.65;;;;;;;-10.38;59.85;101382.52;1748795;82;21024;-69
2022/01/12 11:13:35;;;;;;;7.10;3.55;;;;;;;-10.36;60.19;101379.57;1749642;81;21019;-69
2022/01/12 11:16:03;;;;;;;6.70;4.10;;;;;;;-10.32;60.08;101369.89;1753391;80;21498;-69
2022/01/12 11:18:35;;;;;;;5.85;3.55;;;;;;;-10.31;60.09;101375.02;1745576;82;22614;-68
2022/01/12 11:21:07;;;;;;;8.03;3.62;;;;;;;-10.31;59.86;101370.33;1764308;81;21050;-69
2022/01/12 11:23:38;;;;;;;6.67;4.00;;;;;;;-10.32;59.79;101369.47;1762833;81;21010;-68
2022/01/12 11:26:27;;;;;;;5.58;3.20;;;;;;;-10.34;59.53;101371.10;1767746;81;20982;-68
2022/01/12 11:28:54;;;;;;;5.45;2.98;;;;;;;-10.32;59.72;101366.05;1697102;82;21460;-68
2022/01/12 11:31:29;;;;;;;4.65;2.92;;;;;;;-10.29;59.60;101367.39;1735597;82;21865;-69
2022/01/12 11:33:56;;;;;;;5.67;3.80;;;;;;;-10.28;59.60;101365.28;1751603;81;21419;-68
2022/01/12 11:36:26;;;;;;;6.97;3.10;;;;;;;-10.25;59.73;101362.78;1767861;81;21459;-67
2022/01/12 11:39:11;;;;;;;6.35;3.45;;;;;;;-10.21;59.88;101364.13;1762805;81;21489;-67
2022/01/12 11:41:39;;;;;;;4.17;2.75;;;;;;;-10.22;59.35;101362.86;1748593;82;20993;-68
2022/01/12 11:44:23;;;;;;;5.53;2.83;;;;;;;-10.34;59.00;101361.30;1748674;82;22473;-68
2022/01/12 11:46:52;;;;;;;5.37;3.27;;;;;;;-10.45;58.70;101372.16;1747463;81;20965;-67
2022/01/12 11:49:34;;;;;;;5.95;3.58;;;;;;;-10.59;58.23;101371.00;1744827;81;21523;-67
2022/01/12 11:52:16;;;;;;;25.63;11.57;;;;;;;-10.63;58.26;101360.67;1719596;82;21502;-69
2022/01/12 11:54:47;;;;;;;27.55;11.33;;;;;;;-10.66;58.57;101370.83;1748528;82;21027;-68
2022/01/12 11:57:18;;;;;;;52.73;21.37;;;;;;;-10.65;58.27;101372.55;1751251;80;21826;-68
2022/01/12 11:59:55;;;;;;;14.80;6.22;;;;;;;-10.65;58.30;101378.93;1750306;81;20993;-69
2022/01/12 12:02:41;;;;;;;17.07;6.95;;;;;;;-10.65;58.19;101370.85;1730549;81;20991;-70
2022/01/12 12:05:14;;;;;;;28.00;10.48;;;;;;;-10.71;57.91;101384.36;1756664;81;21066;-70
2022/01/12 12:07:54;;;;;;;14.78;6.00;;;;;;;-10.87;57.94;101382.27;1722274;81;21056;-70
2022/01/12 12:10:24;;;;;;;45.58;15.58;;;;;;;-10.93;58.17;101385.08;1718901;83;21856;-70
2022/01/12 12:12:51;;;;;;;34.55;13.98;;;;;;;-11.02;58.48;101385.72;1718808;83;21506;-69
2022/01/12 12:15:21;;;;;;;29.90;11.25;;;;;;;-11.03;58.85;101387.81;1718656;82;21008;-69
2022/01/12 12:17:47;;;;;;;45.67;16.57;;;;;;;-10.97;59.11;101388.84;1718770;83;21490;-69
2022/01/12 12:20:16;;;;;;;67.62;24.40;;;;;;;-10.94;59.09;101384.62;1759908;81;21343;-68
2022/01/12 12:22:45;;;;;;;114.08;41.85;;;;;;;-10.96;59.06;101388.42;1764347;81;21832;-69
2022/01/12 12:25:15;;;;;;;45.83;17.30;;;;;;;-10.98;59.19;101385.84;1749971;81;20947;-69
2022/01/12 12:27:44;;;;;;;73.17;26.65;;;;;;;-10.99;59.23;101385.39;1761256;81;21040;-69
2022/01/12 12:30:17;;;;;;;85.45;30.45;;;;;;;-11.03;59.40;101390.38;1761474;81;22046;-68
2022/01/12 12:32:59;;;;;;;58.68;22.07;;;;;;;-11.01;59.74;101397.64;1762360;81;21410;-70
2022/01/12 12:35:29;;;;;;;19.15;8.30;;;;;;;-10.97;59.87;101390.53;1742039;81;21732;-69
2022/01/12 12:38:08;;;;;;;14.87;6.05;;;;;;;-10.94;59.86;101396.11;1763882;80;20944;-68
2022/01/12 12:40:40;;;;;;;28.65;12.82;;;;;;;-10.97;59.58;101398.19;1743266;81;21004;-69
2022/01/12 12:43:24;;;;;;;11.05;5.53;;;;;;;-11.00;59.56;101392.60;1718605;82;21447;-69